Time;durP1;ratioP1;P1;durP2;ratioP2;P2;SDS_P1;SDS_P2;PMS_P1;PMS_P2;Temp;Humidity;BMP_temperature;BMP_pressure;BME280_temperature;BME280_humidity;BME280_pressure;Samples;Min_cycle;Max_cycle;Signal;HPM_P1;HPM_P2
2022/01/13 00:00:07;;;;;;;22.37;11.07;;;;;;;6.65;43.43;103472.97;5031287;28;20469;-50
2022/01/13 00:02:36;;;;;;;25.53;12.70;;;;;;;6.64;43.68;103464.16;5030805;28;20470;-47
2022/01/13 00:05:05;;;;;;;19.53;11.00;;;;;;;6.67;43.26;103469.25;5031683;28;20439;-49
2022/01/13 00:07:34;;;;;;;28.73;11.77;;;;;;;6.66;44.31;103443.69;5034354;28;20505;-49
2022/01/13 00:10:01;;;;;;;27.73;11.60;;;;;;;6.68;43.63;103456.84;5035523;28;20428;-46
2022/01/13 00:12:34;;;;;;;29.23;13.10;;;;;;;6.68;43.59;103436.50;5034836;28;20452;-49
2022/01/13 00:15:22;;;;;;;25.67;12.13;;;;;;;6.71;43.04;103435.44;5035321;28;20435;-48
2022/01/13 00:18:03;;;;;;;24.87;11.93;;;;;;;6.68;43.15;103438.28;5035498;28;20432;-47
2022/01/13 00:20:47;;;;;;;28.80;12.80;;;;;;;6.68;42.07;103425.88;5035019;28;21009;-44
2022/01/13 00:26:02;;;;;;;22.93;12.03;;;;;;;6.75;41.58;103436.06;5035314;28;20452;-47
2022/01/13 00:28:30;;;;;;;21.23;11.83;;;;;;;6.75;42.48;103433.41;5035121;28;20474;-45
2022/01/13 00:30:59;;;;;;;38.57;12.13;;;;;;;6.72;42.80;103431.78;5034427;28;20439;-46
2022/01/13 00:33:27;;;;;;;18.20;11.30;;;;;;;6.76;42.37;103433.28;5035053;28;20542;-48
2022/01/13 00:35:58;;;;;;;36.00;12.60;;;;;;;6.74;41.84;103434.34;5034742;28;20464;-45
2022/01/13 00:38:26;;;;;;;24.77;10.87;;;;;;;6.75;41.71;103436.88;5034795;28;20428;-47
2022/01/13 00:40:55;;;;;;;27.00;12.00;;;;;;;6.73;41.59;103430.84;5034366;28;20434;-46
2022/01/13 00:43:22;;;;;;;25.80;12.67;;;;;;;6.74;41.02;103447.63;5031412;28;20451;-48
2022/01/13 00:45:50;;;;;;;30.93;12.20;;;;;;;6.74;40.67;103443.16;5030235;28;20452;-45
2022/01/13 00:48:20;;;;;;;30.13;12.43;;;;;;;6.72;39.65;103437.09;5034669;28;20555;-49
2022/01/13 00:50:47;;;;;;;26.30;12.50;;;;;;;6.73;39.52;103438.81;5033891;28;20432;-44
2022/01/13 00:53:16;;;;;;;34.83;13.20;;;;;;;6.74;38.85;103429.06;5034812;28;20428;-45
2022/01/13 00:55:49;;;;;;;35.80;13.47;;;;;;;6.74;39.57;103439.66;5034676;28;20452;-47
2022/01/13 00:58:18;;;;;;;29.90;11.97;;;;;;;6.71;39.31;103440.72;5034556;28;20428;-45
2022/01/13 01:00:46;;;;;;;24.00;11.83;;;;;;;6.76;38.05;103443.91;5033726;28;20437;-44
2022/01/13 01:03:14;;;;;;;32.37;12.37;;;;;;;6.78;38.00;103443.81;5034312;28;20443;-46
2022/01/13 01:05:43;;;;;;;23.47;12.57;;;;;;;6.77;37.56;103453.56;5034562;28;20458;-44
2022/01/13 01:08:12;;;;;;;30.47;12.40;;;;;;;6.78;38.64;103454.41;5034446;28;20476;-47
2022/01/13 01:10:46;;;;;;;37.10;13.10;;;;;;;6.78;39.16;103441.16;5033789;28;20432;-45
2022/01/13 01:13:17;;;;;;;25.37;11.30;;;;;;;6.78;38.41;103451.78;5034375;28;20432;-46
2022/01/13 01:15:49;;;;;;;20.37;12.10;;;;;;;6.78;38.70;103446.47;5033994;28;20466;-46
2022/01/13 01:18:28;;;;;;;21.80;11.43;;;;;;;6.79;38.45;103449.00;5033851;28;20428;-49
2022/01/13 01:24:25;;;;;;;24.50;11.03;;;;;;;6.78;38.23;103441.97;4992226;28;20438;-50
2022/01/13 01:26:56;;;;;;;26.40;10.80;;;;;;;6.78;38.05;103444.63;4992190;28;20483;-47
2022/01/13 01:29:27;;;;;;;31.90;12.17;;;;;;;6.82;37.17;103453.22;5019238;28;20436;-45
2022/01/13 01:31:57;;;;;;;30.80;11.77;;;;;;;6.85;36.90;103459.19;5033366;28;20464;-47
2022/01/13 01:34:43;;;;;;;29.60;11.40;;;;;;;6.85;38.08;103456.53;5033742;28;20429;-45
2022/01/13 01:37:16;;;;;;;40.87;12.93;;;;;;;6.86;38.41;103452.06;5057826;23;20630;-41
2022/01/13 01:39:45;;;;;;;27.70;11.33;;;;;;;6.88;38.38;103456.31;5034151;28;20772;-41
2022/01/13 01:42:14;;;;;;;34.03;12.33;;;;;;;6.86;37.69;103458.22;5033527;28;20463;-44
2022/01/13 01:44:44;;;;;;;30.77;10.73;;;;;;;6.88;37.25;103453.66;5025621;28;20433;-44
2022/01/13 01:47:14;;;;;;;35.07;11.63;;;;;;;6.93;37.87;103448.06;5033715;28;20984;-42
2022/01/13 01:49:45;;;;;;;31.93;12.43;;;;;;;6.94;38.76;103461.19;5034004;28;20432;-44
2022/01/13 01:52:19;;;;;;;27.40;12.40;;;;;;;6.95;38.49;103465.56;5033300;28;20464;-42
2022/01/13 01:54:48;;;;;;;21.57;11.80;;;;;;;6.98;38.66;103459.19;5034011;28;20429;-41
2022/01/13 01:57:17;;;;;;;33.87;11.87;;;;;;;7.01;39.40;103451.88;5033691;28;20479;-42
2022/01/13 01:59:45;;;;;;;31.60;11.70;;;;;;;7.03;39.91;103446.44;5034048;28;20432;-43
2022/01/13 02:02:15;;;;;;;25.30;12.20;;;;;;;7.03;39.91;103438.47;5033208;28;20842;-42
2022/01/13 02:04:44;;;;;;;17.27;12.03;;;;;;;7.06;40.86;103425.00;5033674;28;20475;-43
2022/01/13 02:07:12;;;;;;;37.03;11.97;;;;;;;7.05;42.20;103429.44;5033321;28;20460;-42
2022/01/13 02:09:48;;;;;;;28.70;12.57;;;;;;;7.05;42.08;103429.44;5033563;28;20432;-42
2022/01/13 02:12:28;;;;;;;31.67;12.27;;;;;;;7.06;41.99;103431.16;5032921;28;20490;-42
2022/01/13 02:14:59;;;;;;;29.17;11.40;;;;;;;7.08;42.68;103426.56;5033586;28;20428;-42
2022/01/13 02:17:29;;;;;;;23.03;11.40;;;;;;;7.12;43.45;103430.72;5033369;28;20465;-41
2022/01/13 02:19:58;;;;;;;28.80;11.30;;;;;;;7.12;44.55;103427.22;5033302;28;20433;-43
2022/01/13 02:22:27;;;;;;;30.30;11.90;;;;;;;7.13;45.03;103437.72;5032429;28;20826;-42
2022/01/13 02:24:55;;;;;;;21.63;11.77;;;;;;;7.17;46.07;103435.69;5033495;28;20439;-44
2022/01/13 02:27:22;;;;;;;27.37;12.50;;;;;;;7.18;46.23;103432.09;5033038;28;20452;-43
2022/01/13 02:29:50;;;;;;;23.63;11.30;;;;;;;7.19;47.10;103437.31;5032610;28;20428;-43
2022/01/13 02:32:19;;;;;;;24.10;11.63;;;;;;;7.21;48.90;103439.81;5032558;28;20460;-42
2022/01/13 02:34:47;;;;;;;33.07;11.80;;;;;;;7.20;50.19;103435.47;5032966;28;20429;-43
2022/01/13 02:37:16;;;;;;;27.03;12.83;;;;;;;7.17;51.92;103425.91;5033136;28;20472;-43
2022/01/13 02:39:45;;;;;;;24.27;11.47;;;;;;;7.19;51.59;103426.69;5033205;28;20443;-42
2022/01/13 02:42:14;;;;;;;34.57;11.20;;;;;;;7.17;51.88;103425.06;5032194;28;20464;-41
2022/01/13 02:44:49;;;;;;;24.83;11.40;;;;;;;7.20;52.18;103422.19;5032821;28;20462;-44
2022/01/13 02:47:36;;;;;;;27.60;12.50;;;;;;;7.20;53.51;103415.09;5032691;28;20460;-42
2022/01/13 02:50:09;;;;;;;27.87;11.20;;;;;;;7.18;55.07;103409.06;5032882;28;20437;-43
2022/01/13 02:52:36;;;;;;;29.70;11.63;;;;;;;7.18;55.09;103419.66;5032024;28;20468;-41
2022/01/13 02:55:07;;;;;;;20.93;10.63;;;;;;;7.17;55.87;103410.00;5032969;28;20432;-45
2022/01/13 02:57:35;;;;;;;23.13;10.67;;;;;;;7.15;56.12;103398.66;5032502;28;20462;-44
2022/01/13 03:00:04;;;;;;;18.10;10.97;;;;;;;7.16;55.75;103384.44;5032892;28;20437;-42
2022/01/13 03:02:32;;;;;;;29.27;11.70;;;;;;;7.19;56.34;103384.22;5032005;28;20460;-43
2022/01/13 03:05:00;;;;;;;26.57;12.27;;;;;;;7.17;56.69;103385.25;5033180;28;20474;-43
2022/01/13 03:07:33;;;;;;;23.40;10.70;;;;;;;7.21;56.83;103371.69;5032458;28;20456;-42
2022/01/13 03:10:01;;;;;;;26.00;11.67;;;;;;;7.20;57.66;103371.78;5032324;28;20483;-43
2022/01/13 03:12:32;;;;;;;21.63;10.03;;;;;;;7.24;58.36;103374.09;5031841;28;20998;-43
2022/01/13 03:15:00;;;;;;;27.27;11.27;;;;;;;7.24;58.76;103375.91;5032777;28;20439;-42
2022/01/13 03:17:27;;;;;;;24.00;10.50;;;;;;;7.23;59.80;103358.28;5033258;28;20460;-40
2022/01/13 03:19:55;;;;;;;31.20;11.63;;;;;;;7.24;59.89;103360.84;5033176;28;20409;-41
2022/01/13 03:22:23;;;;;;;21.93;11.00;;;;;;;7.24;60.06;103360.84;5032060;28;20474;-41
2022/01/13 03:24:50;;;;;;;21.67;11.30;;;;;;;7.27;60.35;103361.56;5032318;28;20443;-42
2022/01/13 03:27:22;;;;;;;28.63;12.20;;;;;;;7.28;61.98;103350.00;5032920;28;20462;-43
2022/01/13 03:29:51;;;;;;;29.73;12.67;;;;;;;7.24;62.25;103360.84;5032430;28;20812;-41
2022/01/13 03:32:19;;;;;;;20.67;11.53;;;;;;;7.27;62.26;103359.75;5031638;28;20464;-41
2022/01/13 03:34:46;;;;;;;21.33;11.00;;;;;;;7.26;63.87;103373.16;5032843;28;20429;-41
2022/01/13 03:37:14;;;;;;;23.27;12.57;;;;;;;7.28;64.67;103357.97;5032236;28;20474;-43
2022/01/13 03:39:42;;;;;;;28.43;10.53;;;;;;;7.29;65.47;103357.00;5032828;28;20424;-41
2022/01/13 03:42:10;;;;;;;19.10;10.30;;;;;;;7.30;66.66;103356.03;5031947;28;20486;-42
2022/01/13 03:44:37;;;;;;;26.43;10.30;;;;;;;7.32;67.57;103351.47;5023983;28;20969;-41
2022/01/13 03:47:09;;;;;;;32.33;13.57;;;;;;;7.30;68.70;103346.28;5032251;28;20442;-41
2022/01/13 03:49:37;;;;;;;28.47;11.97;;;;;;;7.31;69.67;103350.63;5032481;28;20476;-42
2022/01/13 03:52:53;;;;;;;23.47;12.13;;;;;;;7.33;70.00;103354.00;5031452;28;20471;-44
2022/01/13 03:55:57;;;;;;;24.87;12.10;;;;;;;7.32;72.09;103357.63;5032016;28;20428;-42
2022/01/13 03:59:08;;;;;;;28.60;10.07;;;;;;;7.32;72.46;103359.44;5032339;28;20802;-41
2022/01/13 04:02:00;;;;;;;30.70;11.33;;;;;;;7.31;72.10;103345.31;4998744;28;20460;-41
2022/01/13 04:04:30;;;;;;;21.30;11.07;;;;;;;7.32;72.28;103352.31;5031898;28;20463;-44
2022/01/13 04:07:11;;;;;;;28.17;11.93;;;;;;;7.31;73.86;103357.75;5032002;28;20440;-44
2022/01/13 04:10:29;;;;;;;28.53;10.43;;;;;;;7.33;73.79;103354.00;5032061;28;20480;-41
2022/01/13 04:12:57;;;;;;;27.47;12.03;;;;;;;7.30;74.30;103356.88;5031692;28;20464;-43
2022/01/13 04:15:29;;;;;;;27.43;11.67;;;;;;;7.30;74.20;103359.53;5032023;28;20430;-44
2022/01/13 04:17:57;;;;;;;23.67;11.27;;;;;;;7.32;74.81;103354.13;5031774;28;20466;-44
2022/01/13 04:20:26;;;;;;;26.43;11.10;;;;;;;7.34;75.00;103362.81;5032031;28;20447;-41
2022/01/13 04:22:54;;;;;;;29.17;11.00;;;;;;;7.35;74.89;103341.47;5031373;28;20468;-41
2022/01/13 04:25:23;;;;;;;19.33;10.40;;;;;;;7.35;75.52;103349.44;5031695;28;20810;-41
2022/01/13 04:27:51;;;;;;;32.17;11.13;;;;;;;7.36;76.11;103347.63;5031691;28;20997;-41
2022/01/13 04:30:46;;;;;;;31.07;12.67;;;;;;;7.37;76.79;103342.22;5031811;28;20476;-43
2022/01/13 04:33:14;;;;;;;28.23;12.40;;;;;;;7.32;76.15;103347.00;5031590;28;20958;-43
2022/01/13 04:35:44;;;;;;;28.23;11.83;;;;;;;7.32;76.27;103331.06;5031681;28;20803;-42
2022/01/13 04:38:11;;;;;;;22.57;11.47;;;;;;;7.32;76.75;103344.34;5031580;28;20468;-42
2022/01/13 04:40:44;;;;;;;23.33;12.20;;;;;;;7.31;77.54;103333.84;5031523;28;20441;-41
2022/01/13 04:43:12;;;;;;;23.50;11.20;;;;;;;7.31;76.82;103328.53;5029461;28;21011;-43
2022/01/13 04:45:41;;;;;;;27.13;12.27;;;;;;;7.30;75.90;103335.66;5025913;28;20425;-43
2022/01/13 04:48:08;;;;;;;29.53;13.80;;;;;;;7.28;75.96;103331.41;5031452;28;20495;-42
2022/01/13 04:50:36;;;;;;;30.53;12.30;;;;;;;7.31;75.22;103333.84;5031176;28;21013;-43
2022/01/13 04:53:05;;;;;;;29.67;14.00;;;;;;;7.28;75.09;103344.69;5033483;28;20472;-42
2022/01/13 04:55:35;;;;;;;23.33;14.37;;;;;;;7.29;75.75;103333.13;5035314;28;21038;-41
2022/01/13 04:58:02;;;;;;;43.20;22.87;;;;;;;7.26;76.04;103336.00;5033827;28;20456;-43
2022/01/13 05:00:31;;;;;;;40.97;22.60;;;;;;;7.22;74.78;103335.38;5033132;28;20963;-41
2022/01/13 05:03:00;;;;;;;35.83;18.47;;;;;;;7.22;74.36;103324.75;5033626;28;20532;-42
2022/01/13 05:05:27;;;;;;;44.43;21.33;;;;;;;7.22;73.70;103320.31;5035122;28;20432;-41
2022/01/13 05:07:55;;;;;;;31.77;20.13;;;;;;;7.21;nan;103318.59;5035073;28;20459;-42
2022/01/13 05:10:24;;;;;;;37.03;14.93;;;;;;;7.23;74.33;103326.44;5034604;28;20529;-43
2022/01/13 05:12:55;;;;;;;29.43;13.13;;;;;;;7.26;73.71;103333.34;5034730;28;20479;-42
2022/01/13 05:15:25;;;;;;;30.37;14.60;;;;;;;7.26;74.41;103322.72;5034666;28;20438;-42
2022/01/13 05:20:47;;;;;;;44.43;24.37;;;;;;;7.20;76.51;103324.84;5034587;28;20916;-41
2022/01/13 05:23:15;;;;;;;40.50;22.87;;;;;;;7.17;77.05;103333.03;5034906;28;20942;-44
2022/01/13 05:25:45;;;;;;;45.60;23.33;;;;;;;7.13;76.67;103330.72;5034529;28;20935;-43
2022/01/13 05:28:13;;;;;;;45.40;24.20;;;;;;;7.11;75.33;103332.63;5034688;28;20448;-44
2022/01/13 05:30:41;;;;;;;49.67;31.43;;;;;;;7.11;75.18;103324.66;5034407;28;20483;-43
2022/01/13 05:33:09;;;;;;;51.80;31.63;;;;;;;7.09;75.41;103340.72;5034151;28;20444;-41
2022/01/13 05:35:37;;;;;;;67.10;36.40;;;;;;;7.08;76.49;103328.41;5034288;28;20425;-42
2022/01/13 05:38:06;;;;;;;61.97;39.27;;;;;;;7.08;76.26;103332.84;5034116;28;20478;-42
2022/01/13 05:40:34;;;;;;;74.40;43.00;;;;;;;7.05;75.44;103336.56;5034425;28;20424;-42
2022/01/13 05:43:05;;;;;;;89.20;46.57;;;;;;;7.01;75.83;103340.44;5032818;28;20462;-41
2022/01/13 05:45:39;;;;;;;61.20;42.63;;;;;;;6.99;74.58;103346.81;5027946;28;20424;-42
2022/01/13 05:48:08;;;;;;;73.60;41.90;;;;;;;6.95;75.58;103345.31;5033896;28;20448;-44
2022/01/13 05:50:36;;;;;;;68.50;44.87;;;;;;;6.94;75.16;103340.97;5033702;28;20472;-43
2022/01/13 05:53:04;;;;;;;62.80;43.63;;;;;;;6.94;73.89;103338.31;5033737;28;20471;-42
2022/01/13 05:55:32;;;;;;;68.93;42.03;;;;;;;6.95;73.48;103340.03;5034995;28;20433;-42
2022/01/13 05:58:00;;;;;;;47.77;33.57;;;;;;;6.95;72.49;103332.91;5035250;28;20456;-41
2022/01/13 06:00:29;;;;;;;62.87;31.47;;;;;;;6.95;72.64;103329.41;5034260;28;20455;-42
2022/01/13 06:02:56;;;;;;;46.13;29.00;;;;;;;6.93;72.70;103323.38;5033115;28;20893;-42
2022/01/13 06:05:25;;;;;;;45.57;29.83;;;;;;;6.94;72.83;103331.22;5032813;28;20432;-41
2022/01/13 06:07:53;;;;;;;58.33;32.30;;;;;;;6.96;72.43;103318.66;5033948;28;20466;-41
2022/01/13 06:10:21;;;;;;;65.77;36.47;;;;;;;6.97;73.37;103319.53;5033802;28;20472;-42
2022/01/13 06:12:51;;;;;;;75.70;41.10;;;;;;;6.96;74.20;103325.81;5033358;28;20456;-41
2022/01/13 06:15:21;;;;;;;118.47;57.20;;;;;;;6.95;74.60;103319.66;5033581;28;20811;-41
2022/01/13 06:17:52;;;;;;;125.23;60.67;;;;;;;6.96;75.12;103328.47;5033428;28;20840;-41
2022/01/13 06:20:20;;;;;;;128.43;60.37;;;;;;;6.96;75.56;103323.16;5033615;28;20428;-42
2022/01/13 06:22:49;;;;;;;78.97;46.70;;;;;;;6.98;75.63;103324.72;5033357;28;20460;-44
2022/01/13 06:25:17;;;;;;;70.30;37.20;;;;;;;6.99;76.77;103329.06;5033577;28;20440;-41
2022/01/13 06:27:45;;;;;;;47.43;31.50;;;;;;;7.00;76.50;103338.72;5033783;28;20467;-44
2022/01/13 06:30:33;;;;;;;71.87;36.37;;;;;;;7.00;77.57;103330.78;5033222;28;20555;-42
2022/01/13 06:33:04;;;;;;;81.70;35.17;;;;;;;7.00;78.00;103329.91;5032853;28;20461;-43
2022/01/13 06:35:31;;;;;;;70.73;33.03;;;;;;;7.01;78.40;103337.78;5033627;28;20429;-42
2022/01/13 06:37:59;;;;;;;52.87;29.83;;;;;;;7.02;78.33;103335.94;5033073;28;20841;-42
2022/01/13 06:40:27;;;;;;;61.33;31.30;;;;;;;7.02;78.92;103341.25;5032998;28;20947;-42
2022/01/13 06:42:54;;;;;;;55.63;30.00;;;;;;;7.01;78.98;103337.78;5032878;28;20460;-44
2022/01/13 06:45:22;;;;;;;51.03;26.47;;;;;;;7.01;78.58;103334.28;5025448;28;20431;-41
2022/01/13 06:47:50;;;;;;;57.40;26.97;;;;;;;6.98;78.50;103332.69;5033495;28;20460;-42
2022/01/13 06:50:19;;;;;;;45.13;24.13;;;;;;;6.98;78.25;103327.38;5033296;28;20482;-41
2022/01/13 06:52:47;;;;;;;35.20;21.50;;;;;;;6.98;77.44;103327.38;5032259;28;20472;-42
2022/01/13 06:55:15;;;;;;;33.83;20.60;;;;;;;7.00;76.76;103329.91;5033125;28;20440;-43
2022/01/13 06:57:43;;;;;;;37.90;18.47;;;;;;;6.99;77.52;103337.03;5032885;28;20460;-41
2022/01/13 07:00:11;;;;;;;40.93;18.17;;;;;;;7.01;76.93;103326.31;5033186;28;20440;-42
2022/01/13 07:02:39;;;;;;;27.93;16.27;;;;;;;7.01;77.93;103323.66;5032224;28;20468;-42
2022/01/13 07:05:08;;;;;;;38.70;17.10;;;;;;;7.00;77.86;103324.59;5032723;28;20523;-43
2022/01/13 07:07:40;;;;;;;28.87;15.87;;;;;;;7.02;78.14;103334.16;5032506;28;20467;-42
2022/01/13 07:10:09;;;;;;;39.33;17.47;;;;;;;7.03;78.80;103322.59;5032641;28;20429;-41
2022/01/13 07:12:37;;;;;;;44.77;16.40;;;;;;;7.03;78.26;103330.53;5032312;28;20805;-43
2022/01/13 07:15:07;;;;;;;39.20;15.00;;;;;;;7.03;78.71;103330.53;5032275;28;20432;-41
2022/01/13 07:17:35;;;;;;;37.73;15.87;;;;;;;7.04;78.52;103340.22;5032604;28;20452;-41
2022/01/13 07:20:03;;;;;;;34.17;14.03;;;;;;;7.00;77.79;103344.03;5032401;28;20428;-41
2022/01/13 07:22:31;;;;;;;27.97;16.10;;;;;;;6.99;77.68;103344.97;5032326;28;20831;-42
2022/01/13 07:25:00;;;;;;;33.77;14.37;;;;;;;6.98;76.89;103347.75;5032902;28;20432;-41
2022/01/13 07:27:28;;;;;;;29.30;15.50;;;;;;;6.99;75.76;103344.97;5032524;28;20457;-41
2022/01/13 07:29:55;;;;;;;35.87;15.70;;;;;;;7.00;76.38;103352.00;5032594;28;20432;-41
2022/01/13 07:32:23;;;;;;;32.13;13.63;;;;;;;7.02;76.53;103351.88;5031649;28;20472;-41
2022/01/13 07:34:51;;;;;;;33.53;15.53;;;;;;;7.04;76.00;103358.78;5032255;28;20432;-43
2022/01/13 07:37:18;;;;;;;26.83;15.73;;;;;;;7.01;77.16;103356.34;5032290;28;20474;-43
2022/01/13 07:39:46;;;;;;;26.43;16.10;;;;;;;7.03;77.19;103364.19;5033769;28;20432;-43
2022/01/13 07:42:16;;;;;;;28.27;15.70;;;;;;;7.02;77.32;103357.16;5032641;28;20889;-44
2022/01/13 07:44:44;;;;;;;33.00;17.83;;;;;;;7.00;78.23;103362.59;5024916;28;20513;-43
2022/01/13 07:47:11;;;;;;;29.40;16.53;;;;;;;6.98;77.71;103361.88;5032975;28;20463;-43
2022/01/13 07:49:39;;;;;;;28.40;18.40;;;;;;;7.01;76.45;103363.47;5032732;28;20943;-41
2022/01/13 07:52:07;;;;;;;27.37;20.43;;;;;;;7.03;76.50;103362.38;5032473;28;20842;-43
2022/01/13 07:54:34;;;;;;;41.10;19.70;;;;;;;7.00;76.44;103359.94;5032693;28;20936;-43
2022/01/13 07:57:02;;;;;;;38.27;21.90;;;;;;;7.02;75.47;103350.06;5033420;28;20806;-42
2022/01/13 07:59:31;;;;;;;36.03;21.70;;;;;;;7.03;75.88;103361.53;5032958;28;20436;-43
2022/01/13 08:01:59;;;;;;;33.27;21.07;;;;;;;7.06;74.66;103364.81;5032493;28;20817;-44
2022/01/13 08:04:28;;;;;;;30.33;18.40;;;;;;;7.09;75.35;103358.44;5033033;28;20437;-41
2022/01/13 08:06:55;;;;;;;27.37;19.00;;;;;;;7.10;75.34;103365.44;5033313;28;20443;-41
2022/01/13 08:09:23;;;;;;;48.17;20.77;;;;;;;7.12;76.04;103348.47;5033460;28;20436;-42
2022/01/13 08:11:51;;;;;;;38.23;19.77;;;;;;;7.12;76.00;103364.38;5032719;28;20475;-43
2022/01/13 08:14:19;;;;;;;38.83;17.30;;;;;;;7.14;76.65;103358.94;5033150;28;20804;-43
2022/01/13 08:16:50;;;;;;;30.77;17.63;;;;;;;7.13;76.96;103363.44;5033078;28;20445;-42
2022/01/13 08:22:03;;;;;;;32.83;16.70;;;;;;;7.12;78.32;103368.84;5032841;28;20474;-45
2022/01/13 08:24:31;;;;;;;32.20;15.37;;;;;;;7.14;77.96;103358.94;5033328;28;20438;-43
2022/01/13 08:26:58;;;;;;;24.00;15.67;;;;;;;7.15;77.62;103358.84;5033809;28;20440;-43
2022/01/13 08:29:26;;;;;;;28.83;16.13;;;;;;;7.19;78.44;103357.69;5037566;28;20436;-44
2022/01/13 08:31:55;;;;;;;36.67;15.00;;;;;;;7.19;78.60;103362.13;5036673;28;20463;-43
2022/01/13 08:34:23;;;;;;;34.90;14.00;;;;;;;7.17;77.82;103354.28;5037170;28;20527;-44
2022/01/13 08:36:51;;;;;;;26.47;13.80;;;;;;;7.23;78.04;103356.47;5036677;28;20442;-42
2022/01/13 08:39:19;;;;;;;35.07;14.73;;;;;;;7.25;78.92;103351.06;5035928;28;20436;-42
2022/01/13 08:41:46;;;;;;;29.30;14.77;;;;;;;7.29;80.23;103341.09;5034506;28;20486;-41
2022/01/13 08:44:14;;;;;;;23.70;13.67;;;;;;;7.27;80.44;103341.19;5032733;28;20442;-42
2022/01/13 08:46:41;;;;;;;23.57;13.77;;;;;;;7.31;80.14;103340.00;5029356;28;20812;-42
2022/01/13 08:49:11;;;;;;;35.50;15.27;;;;;;;7.36;80.66;103345.81;5034779;28;20452;-43
2022/01/13 08:51:39;;;;;;;23.17;13.97;;;;;;;7.40;81.61;103338.50;5034474;28;20480;-43
2022/01/13 08:54:07;;;;;;;29.03;14.13;;;;;;;7.42;83.08;103337.41;5034822;28;20440;-44
2022/01/13 08:56:34;;;;;;;27.63;15.13;;;;;;;7.49;83.35;103337.81;5035005;28;20435;-41
2022/01/13 08:59:02;;;;;;;26.83;13.17;;;;;;;7.55;84.58;103340.88;5034876;28;20458;-44
2022/01/13 09:01:30;;;;;;;20.10;12.07;;;;;;;7.59;85.80;103334.34;5034117;28;20453;-42
2022/01/13 09:03:59;;;;;;;18.00;12.70;;;;;;;7.60;87.72;103335.19;5034767;28;20489;-41
2022/01/13 09:06:28;;;;;;;26.73;12.97;;;;;;;7.70;87.85;103331.75;5034720;28;20455;-41
2022/01/13 09:08:56;;;;;;;28.17;13.27;;;;;;;7.74;88.79;103322.56;5034740;28;20452;-43
2022/01/13 09:11:23;;;;;;;23.07;12.30;;;;;;;7.73;90.17;103320.91;5033896;28;20487;-46
2022/01/13 09:13:56;;;;;;;28.23;12.23;;;;;;;7.84;89.95;103329.84;5034632;28;20432;-42
2022/01/13 09:16:25;;;;;;;19.10;11.87;;;;;;;7.91;90.94;103323.13;5034375;28;20802;-43
2022/01/13 09:19:07;;;;;;;25.73;13.17;;;;;;;7.98;91.81;103327.00;5034359;28;20487;-44
2022/01/13 09:21:38;;;;;;;27.20;11.37;;;;;;;7.98;92.85;103333.16;5033891;28;20463;-42
2022/01/13 09:24:08;;;;;;;21.40;10.90;;;;;;;8.01;93.13;103334.72;5034554;28;20427;-43
2022/01/13 09:26:36;;;;;;;19.80;11.37;;;;;;;7.99;93.88;103328.69;5034221;28;20432;-46
2022/01/13 09:29:05;;;;;;;15.33;10.20;;;;;;;7.94;93.59;103337.03;5034002;28;20452;-41
2022/01/13 09:31:34;;;;;;;20.20;11.20;;;;;;;7.99;93.19;103326.03;5033555;28;20476;-42
2022/01/13 09:34:03;;;;;;;21.93;12.90;;;;;;;7.99;93.57;103332.19;5033910;28;20420;-42
2022/01/13 09:36:31;;;;;;;23.40;11.13;;;;;;;7.97;93.34;103328.81;5033952;28;20961;-43
2022/01/13 09:39:02;;;;;;;23.33;11.10;;;;;;;7.99;93.79;103334.00;5033517;28;20460;-45
2022/01/13 09:41:32;;;;;;;23.00;10.90;;;;;;;7.99;93.66;103340.16;5033691;28;20458;-44
2022/01/13 09:44:01;;;;;;;21.47;11.33;;;;;;;7.97;93.93;103339.44;5025720;28;20441;-41
2022/01/13 09:46:30;;;;;;;15.97;10.70;;;;;;;7.89;93.78;103331.19;5033950;28;20443;-43
2022/01/13 09:49:02;;;;;;;21.03;11.83;;;;;;;7.87;93.46;103343.75;5033733;28;20893;-41
2022/01/13 09:51:30;;;;;;;20.63;11.23;;;;;;;7.90;93.14;103342.66;5033123;28;20464;-44
2022/01/13 09:54:00;;;;;;;17.63;12.53;;;;;;;7.89;93.86;103347.13;5033650;28;20463;-41
2022/01/13 09:56:28;;;;;;;26.23;12.93;;;;;;;7.80;93.03;103342.50;5033527;28;20436;-43
2022/01/13 09:58:55;;;;;;;29.20;13.30;;;;;;;7.79;92.96;103348.81;5033698;28;20485;-43
2022/01/13 10:01:23;;;;;;;21.77;14.07;;;;;;;7.79;92.87;103346.97;5032866;28;20464;-43
2022/01/13 10:03:51;;;;;;;25.43;13.43;;;;;;;7.77;92.78;103354.22;5033788;28;20852;-42
2022/01/13 10:06:21;;;;;;;24.33;12.90;;;;;;;7.76;92.17;103335.75;5033401;28;20791;-42
2022/01/13 10:08:51;;;;;;;16.97;11.27;;;;;;;7.73;92.49;103349.28;5033523;28;20452;-44
2022/01/13 10:11:28;;;;;;;20.33;11.70;;;;;;;7.76;92.12;103352.50;5032755;28;20467;-41
2022/01/13 10:14:14;;;;;;;20.83;10.17;;;;;;;7.72;92.61;103337.78;5033519;28;20842;-44
2022/01/13 10:16:46;;;;;;;23.53;11.40;;;;;;;7.75;92.43;103344.69;5033202;28;20795;-43
2022/01/13 10:19:30;;;;;;;22.20;11.33;;;;;;;7.72;93.03;103342.25;5033055;28;20433;-41
2022/01/13 10:22:01;;;;;;;19.20;11.70;;;;;;;7.77;93.02;103337.44;5031038;28;20467;-44
2022/01/13 10:24:30;;;;;;;25.60;11.40;;;;;;;7.71;92.92;103336.09;5033384;28;20408;-44
2022/01/13 10:27:03;;;;;;;25.63;12.37;;;;;;;7.77;92.25;103337.44;5032997;28;20441;-43
2022/01/13 10:29:46;;;;;;;20.43;11.40;;;;;;;7.78;92.38;103340.00;5033543;28;20424;-43
2022/01/13 10:32:16;;;;;;;19.40;12.13;;;;;;;7.83;92.81;103334.31;5032362;28;20897;-43
2022/01/13 10:34:46;;;;;;;26.93;12.67;;;;;;;7.85;93.13;103335.06;5032763;28;20931;-42
2022/01/13 10:37:15;;;;;;;19.80;11.37;;;;;;;7.88;93.01;103320.69;5032866;28;20467;-42
2022/01/13 10:39:57;;;;;;;15.30;11.53;;;;;;;7.86;93.41;103326.13;5033126;28;20417;-41
2022/01/13 10:43:09;;;;;;;21.73;11.90;;;;;;;7.88;92.98;103324.22;5032189;28;20467;-41
2022/01/13 10:45:43;;;;;;;21.67;9.97;;;;;;;7.84;93.30;103328.03;5026605;28;20875;-42
2022/01/13 10:48:13;;;;;;;16.07;10.00;;;;;;;7.88;93.69;103331.31;5032606;28;20459;-42
2022/01/13 10:50:44;;;;;;;22.13;10.63;;;;;;;7.84;93.43;103333.34;5031745;28;20439;-43
2022/01/13 10:53:14;;;;;;;24.80;11.17;;;;;;;7.84;93.36;103325.38;5032443;28;20487;-43
2022/01/13 10:55:45;;;;;;;20.67;11.47;;;;;;;7.82;93.08;103319.34;5032637;28;20431;-43
2022/01/13 10:58:16;;;;;;;15.70;10.77;;;;;;;7.85;92.63;103312.97;5032381;28;20448;-44
2022/01/13 11:00:45;;;;;;;27.43;10.90;;;;;;;7.78;93.19;103317.88;5032083;28;20761;-43
2022/01/13 11:03:16;;;;;;;21.97;10.93;;;;;;;7.77;93.13;103310.88;5032286;28;20429;-43
2022/01/13 11:05:47;;;;;;;27.43;10.83;;;;;;;7.82;92.42;103318.50;5032328;28;20429;-45
2022/01/13 11:08:24;;;;;;;20.70;9.90;;;;;;;7.82;92.66;103322.00;5032419;28;20452;-43
2022/01/13 11:10:54;;;;;;;23.20;10.80;;;;;;;7.79;92.83;103330.22;5031824;28;20432;-43
2022/01/13 11:13:24;;;;;;;17.90;9.77;;;;;;;7.75;92.89;103323.44;5032106;28;20548;-45
2022/01/13 11:15:55;;;;;;;23.73;10.17;;;;;;;7.80;92.74;103322.13;5032564;28;20432;-42
2022/01/13 11:18:25;;;;;;;15.70;9.73;;;;;;;7.80;92.90;103322.13;5032293;28;20456;-42
2022/01/13 11:20:54;;;;;;;18.60;9.73;;;;;;;7.80;92.68;103315.94;5031765;28;20413;-42
2022/01/13 11:23:22;;;;;;;16.37;9.73;;;;;;;7.82;93.03;103321.16;5031970;28;20439;-42
2022/01/13 11:25:53;;;;;;;17.13;10.10;;;;;;;7.79;92.97;103324.91;5032285;28;20440;-43
2022/01/13 11:28:25;;;;;;;17.87;8.93;;;;;;;7.82;92.63;103308.72;5031773;28;20563;-42
2022/01/13 11:30:53;;;;;;;15.20;9.50;;;;;;;7.85;92.99;103313.81;5031826;28;20415;-43
2022/01/13 11:33:22;;;;;;;21.30;9.90;;;;;;;7.87;92.94;103306.56;5032076;28;20479;-44
2022/01/13 11:35:55;;;;;;;22.90;10.87;;;;;;;7.80;93.38;103323.91;5032026;28;20433;-43
2022/01/13 11:38:25;;;;;;;19.00;9.37;;;;;;;7.84;92.95;103333.34;5031909;28;20456;-43
2022/01/13 11:40:54;;;;;;;21.03;10.40;;;;;;;7.79;93.36;103312.44;5031119;28;20515;-43
2022/01/13 11:43:32;;;;;;;23.90;10.57;;;;;;;7.82;93.42;103329.13;5032016;28;20428;-45